^^
Saratoga-Weather Station Historical Data
Daily Summary for May 26, 2021 Units:  Metric    English   Both
Daily Weekly Monthly Yearly Custom
  High: Low: Average:
Temperature: 13.8 °C 8.3 °C 10.6 °C
Dew Point: 11.5 °C 7.4 °C 8.6 °C
Humidity: 95% 72% 88%
Wind Speed: 20.9km/h 0km/h 4.8km/h
Wind Gust: 37km/h - -
Wind- - WSW
Pressure: 1017.6 hPa 1011.2 hPa -
Precipitation: 11.2 mm    
Historical Graphs
 
 
Tabular Data for May 26, 2021
Time Temperature Dew Point Pressure Wind Wind Speed Wind Gust Humidity Rainfall Rate (Hourly) solar
00:03 9.1 °C 7.7 °C 1017.6 hPa WNW 1.4 km/h 3.2 km/h 91% 0.0 mm 0 W/m2
00:08 9 °C 7.6 °C 1017.3 hPa West 4.7 km/h 9.7 km/h 91% 0.0 mm 0 W/m2
00:13 9 °C 7.6 °C 1017.3 hPa WNW 1.4 km/h 6.4 km/h 91% 0.0 mm 0 W/m2
00:18 9 °C 7.6 °C 1017.3 hPa Calm   1.6 km/h 91% 0.0 mm 0 W/m2
00:23 8.9 °C 7.5 °C 1017.3 hPa Calm     91% 0.0 mm 0 W/m2
00:28 8.8 °C 7.4 °C 1017.3 hPa Calm     91% 0.0 mm 0 W/m2
00:33 8.8 °C 7.6 °C 1016.9 hPa Calm     92% 0.0 mm 0 W/m2
00:38 8.7 °C 7.5 °C 1016.9 hPa Calm   1.6 km/h 92% 0.2 mm 0 W/m2
00:43 8.7 °C 7.5 °C 1016.9 hPa WNW 1.4 km/h 3.2 km/h 92% 0.2 mm 0 W/m2
00:48 8.7 °C 7.5 °C 1016.9 hPa SSW 3.2 km/h 4.8 km/h 92% 0.2 mm 0 W/m2
00:53 8.7 °C 7.5 °C 1016.9 hPa SW 1.4 km/h 1.6 km/h 92% 0.2 mm 0 W/m2
00:58 8.7 °C 7.5 °C 1016.9 hPa Calm   3.2 km/h 92% 0.2 mm 0 W/m2
01:03 8.8 °C 7.6 °C 1016.9 hPa WNW 3.2 km/h 3.2 km/h 92% 0.2 mm 0 W/m2
01:08 8.9 °C 7.7 °C 1016.9 hPa SSW 6.4 km/h 8 km/h 92% 0.2 mm 0 W/m2
01:13 8.9 °C 7.7 °C 1016.9 hPa Calm   3.2 km/h 92% 0.2 mm 0 W/m2
01:18 8.9 °C 7.5 °C 1016.9 hPa West 3.2 km/h 6.4 km/h 91% 0.5 mm 0 W/m2
01:23 9 °C 7.6 °C 1016.6 hPa WNW 1.4 km/h 3.2 km/h 91% 0.5 mm 0 W/m2
01:28 9 °C 7.8 °C 1016.6 hPa WSW 6.4 km/h 6.4 km/h 92% 0.5 mm 0 W/m2
01:33 8.9 °C 7.7 °C 1016.6 hPa West 3.2 km/h 9.7 km/h 92% 0.5 mm 0 W/m2
01:38 8.9 °C 7.7 °C 1016.6 hPa WNW 4.7 km/h 6.4 km/h 92% 0.5 mm 0 W/m2
01:43 8.9 °C 7.7 °C 1016.6 hPa West 1.4 km/h 3.2 km/h 92% 0.5 mm 0 W/m2
01:48 8.9 °C 7.7 °C 1016.3 hPa Calm   1.6 km/h 92% 0.5 mm 0 W/m2
01:53 8.8 °C 7.6 °C 1016.3 hPa West 1.4 km/h 1.6 km/h 92% 0.5 mm 0 W/m2
01:58 8.8 °C 7.6 °C 1016.3 hPa Calm   3.2 km/h 92% 0.5 mm 0 W/m2
02:03 8.8 °C 7.7 °C 1016.3 hPa South 3.2 km/h 3.2 km/h 93% 0.5 mm 0 W/m2
02:08 8.7 °C 7.5 °C 1015.9 hPa Calm   3.2 km/h 92% 0.8 mm 0 W/m2
02:13 8.7 °C 7.6 °C 1015.9 hPa Calm   3.2 km/h 93% 0.8 mm 0 W/m2
02:18 8.7 °C 7.6 °C 1015.9 hPa Calm     93% 0.5 mm 0 W/m2
02:23 8.7 °C 7.6 °C 1015.9 hPa Calm   1.6 km/h 93% 0.5 mm 0 W/m2
02:28 8.6 °C 7.5 °C 1015.9 hPa Calm   1.6 km/h 93% 0.5 mm 0 W/m2
02:33 8.6 °C 7.5 °C 1015.9 hPa Calm   1.6 km/h 93% 0.5 mm 0 W/m2
02:38 8.6 °C 7.5 °C 1015.6 hPa East 3.2 km/h 3.2 km/h 93% 0.5 mm 0 W/m2
02:43 8.5 °C 7.4 °C 1015.6 hPa Calm     93% 0.5 mm 0 W/m2
02:48 8.5 °C 7.4 °C 1015.6 hPa Calm     93% 0.5 mm 0 W/m2
02:53 8.5 °C 7.6 °C 1015.6 hPa East 1.4 km/h 1.6 km/h 94% 0.5 mm 0 W/m2
02:58 8.4 °C 7.5 °C 1015.6 hPa Calm   3.2 km/h 94% 0.5 mm 0 W/m2
03:03 8.5 °C 7.6 °C 1015.6 hPa Calm   1.6 km/h 94% 0.5 mm 0 W/m2
03:08 8.4 °C 7.5 °C 1015.6 hPa Calm   1.6 km/h 94% 0.5 mm 0 W/m2
03:13 8.4 °C 7.5 °C 1015.6 hPa Calm     94% 0.5 mm 0 W/m2
03:18 8.4 °C 7.5 °C 1015.2 hPa Calm   1.6 km/h 94% 0.8 mm 0 W/m2
03:23 8.4 °C 7.5 °C 1015.2 hPa Calm     94% 1.0 mm 0 W/m2
03:28 8.4 °C 7.5 °C 1015.2 hPa ENE 1.4 km/h 1.6 km/h 94% 1.3 mm 0 W/m2
03:33 8.4 °C 7.5 °C 1015.2 hPa Calm     94% 1.5 mm 0 W/m2
03:38 8.4 °C 7.5 °C 1015.2 hPa Calm   3.2 km/h 94% 1.5 mm 0 W/m2
03:43 8.4 °C 7.5 °C 1014.9 hPa Calm   1.6 km/h 94% 1.8 mm 0 W/m2
03:48 8.4 °C 7.5 °C 1014.9 hPa East 3.2 km/h 3.2 km/h 94% 1.8 mm 0 W/m2
03:53 8.4 °C 7.5 °C 1014.9 hPa Calm   1.6 km/h 94% 1.8 mm 0 W/m2
03:58 8.4 °C 7.5 °C 1014.6 hPa Calm   1.6 km/h 94% 2.0 mm 0 W/m2
04:03 8.4 °C 7.5 °C 1014.9 hPa Calm   1.6 km/h 94% 2.3 mm 0 W/m2
04:08 8.4 °C 7.5 °C 1014.6 hPa NNW 3.2 km/h 3.2 km/h 94% 2.3 mm 0 W/m2
04:13 8.4 °C 7.5 °C 1014.6 hPa Calm     94% 2.3 mm 0 W/m2
04:18 8.3 °C 7.4 °C 1014.2 hPa East 1.4 km/h 4.8 km/h 94% 2.0 mm 0 W/m2
04:23 8.3 °C 7.4 °C 1014.2 hPa ENE 4.7 km/h 4.8 km/h 94% 2.0 mm 0 W/m2
04:28 8.3 °C 7.4 °C 1014.2 hPa ENE 1.4 km/h 3.2 km/h 94% 1.8 mm 0 W/m2
04:33 8.3 °C 7.4 °C 1014.2 hPa ENE 3.2 km/h 4.8 km/h 94% 1.5 mm 0 W/m2
04:38 8.3 °C 7.4 °C 1014.2 hPa ENE 4.7 km/h 6.4 km/h 94% 1.5 mm 0 W/m2
04:43 8.3 °C 7.4 °C 1013.9 hPa ENE 3.2 km/h 4.8 km/h 94% 1.5 mm 0 W/m2
04:48 8.3 °C 7.5 °C 1013.9 hPa Calm   3.2 km/h 95% 1.3 mm 0 W/m2
04:53 8.3 °C 7.5 °C 1013.9 hPa NW 1.4 km/h 3.2 km/h 95% 1.3 mm 0 W/m2
04:58 8.3 °C 7.5 °C 1013.9 hPa ESE 1.4 km/h 3.2 km/h 95% 1.3 mm 0 W/m2
05:03 8.3 °C 7.5 °C 1013.9 hPa Calm     95% 1.0 mm 0 W/m2
05:08 8.3 °C 7.5 °C 1013.5 hPa Calm     95% 1.0 mm 0 W/m2
05:13 8.3 °C 7.5 °C 1013.5 hPa ESE 1.4 km/h 1.6 km/h 95% 0.8 mm 0 W/m2
05:18 8.3 °C 7.5 °C 1013.5 hPa ENE 3.2 km/h 4.8 km/h 95% 0.8 mm 0 W/m2
05:23 8.3 °C 7.5 °C 1013.5 hPa Calm   6.4 km/h 95% 0.8 mm 0 W/m2
05:28 8.3 °C 7.5 °C 1013.5 hPa East 1.4 km/h 1.6 km/h 95% 0.8 mm 0 W/m2
05:33 8.4 °C 7.6 °C 1013.2 hPa ENE 1.4 km/h 4.8 km/h 95% 0.8 mm 0 W/m2
05:38 8.4 °C 7.6 °C 1013.5 hPa NE 1.4 km/h 3.2 km/h 95% 0.8 mm 0 W/m2
05:43 8.4 °C 7.6 °C 1013.5 hPa Calm   1.6 km/h 95% 0.8 mm 0 W/m2
05:48 8.4 °C 7.6 °C 1013.2 hPa NNW 1.4 km/h 4.8 km/h 95% 0.8 mm 0 W/m2
05:53 8.5 °C 7.7 °C 1013.2 hPa North 3.2 km/h 3.2 km/h 95% 1.0 mm 0 W/m2
05:58 8.6 °C 7.8 °C 1013.2 hPa Calm   3.2 km/h 95% 0.8 mm 0 W/m2
06:03 8.6 °C 7.8 °C 1013.2 hPa NE 3.2 km/h 3.2 km/h 95% 1.0 mm 7 W/m2
06:08 8.6 °C 7.8 °C 1013.2 hPa Calm   3.2 km/h 95% 0.8 mm 9 W/m2
06:13 8.7 °C 7.9 °C 1013.2 hPa NE 3.2 km/h 6.4 km/h 95% 0.8 mm 11 W/m2
06:18 8.7 °C 7.9 °C 1013.2 hPa NE 1.4 km/h 3.2 km/h 95% 0.8 mm 7 W/m2
06:23 8.7 °C 7.8 °C 1013.2 hPa West 4.7 km/h 4.8 km/h 94% 0.5 mm 14 W/m2
06:28 8.8 °C 7.9 °C 1012.9 hPa NW 4.7 km/h 6.4 km/h 94% 0.5 mm 25 W/m2
06:33 8.8 °C 7.9 °C 1012.9 hPa NNW 1.4 km/h 6.4 km/h 94% 0.5 mm 26 W/m2
06:38 8.8 °C 7.9 °C 1012.9 hPa WNW 1.4 km/h 8 km/h 94% 0.5 mm 18 W/m2
06:43 8.8 °C 7.9 °C 1012.9 hPa West 1.4 km/h 4.8 km/h 94% 0.5 mm 32 W/m2
06:48 8.8 °C 7.9 °C 1012.9 hPa East 3.2 km/h 6.4 km/h 94% 0.5 mm 23 W/m2
06:53 8.9 °C 8 °C 1012.9 hPa West 1.4 km/h 9.7 km/h 94% 0.2 mm 18 W/m2
06:58 8.9 °C 8 °C 1012.9 hPa Calm   3.2 km/h 94% 0.2 mm 14 W/m2
07:03 8.9 °C 8 °C 1012.9 hPa North 3.2 km/h 9.7 km/h 94% 0.2 mm 25 W/m2
07:08 8.9 °C 8 °C 1012.9 hPa NE 1.4 km/h 3.2 km/h 94% 0.2 mm 25 W/m2
07:13 8.9 °C 8 °C 1012.9 hPa Calm   6.4 km/h 94% 0.2 mm 21 W/m2
07:18 8.9 °C 8 °C 1012.9 hPa NE 6.4 km/h 6.4 km/h 94% 0.2 mm 40 W/m2
07:23 8.9 °C 8 °C 1012.9 hPa Calm   3.2 km/h 94% 0.2 mm 33 W/m2
07:28 8.9 °C 7.8 °C 1012.9 hPa East 1.4 km/h 6.4 km/h 93% 0.5 mm 37 W/m2
07:33 8.9 °C 7.8 °C 1012.9 hPa Calm   3.2 km/h 93% 0.5 mm 69 W/m2
07:38 8.9 °C 7.8 °C 1012.9 hPa NNE 3.2 km/h 3.2 km/h 93% 0.5 mm 60 W/m2
07:43 9 °C 7.9 °C 1012.9 hPa Calm   8 km/h 93% 0.5 mm 32 W/m2
07:48 9 °C 7.9 °C 1012.9 hPa WNW 1.4 km/h 3.2 km/h 93% 0.5 mm 42 W/m2
07:53 9 °C 8.1 °C 1012.9 hPa NW 3.2 km/h 3.2 km/h 94% 0.5 mm 42 W/m2
07:58 9 °C 7.9 °C 1012.9 hPa East 3.2 km/h 4.8 km/h 93% 0.5 mm 56 W/m2
08:03 9 °C 8.1 °C 1012.5 hPa East 3.2 km/h 4.8 km/h 94% 0.5 mm 98 W/m2
08:08 9.1 °C 8.2 °C 1012.5 hPa Calm   4.8 km/h 94% 0.5 mm 88 W/m2
08:13 9.1 °C 8.2 °C 1012.5 hPa NNW 1.4 km/h 3.2 km/h 94% 0.8 mm 100 W/m2
08:18 9.2 °C 8.3 °C 1012.5 hPa WNW 4.7 km/h 8 km/h 94% 0.8 mm 91 W/m2
08:23 9.2 °C 8.3 °C 1012.5 hPa Calm   3.2 km/h 94% 0.8 mm 98 W/m2
08:28 9.3 °C 8.4 °C 1012.5 hPa NNE 3.2 km/h 4.8 km/h 94% 0.5 mm 113 W/m2
08:33 9.3 °C 8.4 °C 1012.2 hPa NNE 6.4 km/h 6.4 km/h 94% 0.8 mm 107 W/m2
08:38 9.4 °C 8.5 °C 1012.2 hPa Calm   4.8 km/h 94% 0.8 mm 102 W/m2
08:43 9.4 °C 8.5 °C 1012.2 hPa North 1.4 km/h 6.4 km/h 94% 1.0 mm 116 W/m2
08:48 9.4 °C 8.5 °C 1012.2 hPa NE 3.2 km/h 8 km/h 94% 1.0 mm 97 W/m2
08:53 9.4 °C 8.5 °C 1012.2 hPa NE 1.4 km/h 6.4 km/h 94% 1.3 mm 130 W/m2
08:58 9.5 °C 8.6 °C 1012.2 hPa NNE 3.2 km/h 8 km/h 94% 1.3 mm 95 W/m2
09:03 9.6 °C 8.7 °C 1012.2 hPa NE 1.4 km/h 6.4 km/h 94% 1.3 mm 86 W/m2
09:09 9.6 °C 8.7 °C 1011.9 hPa ENE 4.7 km/h 9.7 km/h 94% 1.5 mm 95 W/m2
09:14 9.6 °C 8.7 °C 1011.9 hPa NE 3.2 km/h 6.4 km/h 94% 1.5 mm 95 W/m2
09:19 9.6 °C 8.7 °C 1011.9 hPa NNW 4.7 km/h 8 km/h 94% 1.5 mm 148 W/m2
09:24 9.7 °C 8.8 °C 1011.9 hPa ESE 3.2 km/h 4.8 km/h 94% 1.5 mm 105 W/m2
09:29 9.7 °C 8.8 °C 1011.9 hPa WNW 3.2 km/h 8 km/h 94% 1.8 mm 127 W/m2
09:34 9.8 °C 8.9 °C 1011.9 hPa NW 3.2 km/h 4.8 km/h 94% 1.5 mm 139 W/m2
09:39 9.8 °C 8.9 °C 1011.9 hPa East 6.4 km/h 9.7 km/h 94% 1.8 mm 141 W/m2
09:44 9.9 °C 9 °C 1011.9 hPa West 6.4 km/h 11.3 km/h 94% 1.8 mm 128 W/m2
09:49 9.9 °C 9 °C 1011.9 hPa NNW 4.7 km/h 16.1 km/h 94% 1.5 mm 186 W/m2
09:54 9.9 °C 9 °C 1011.9 hPa NW 1.4 km/h 11.3 km/h 94% 1.5 mm 206 W/m2
09:59 10 °C 9.1 °C 1011.9 hPa North 1.4 km/h 6.4 km/h 94% 1.8 mm 148 W/m2
10:04 10.1 °C 9.2 °C 1011.9 hPa NE 4.7 km/h 14.5 km/h 94% 1.5 mm 114 W/m2
10:09 10.1 °C 9.2 °C 1011.9 hPa ENE 4.7 km/h 6.4 km/h 94% 1.5 mm 153 W/m2
10:14 10.1 °C 9.2 °C 1011.9 hPa West 6.4 km/h 14.5 km/h 94% 1.5 mm 207 W/m2
10:19 10.2 °C 9.3 °C 1011.9 hPa NW 7.9 km/h 11.3 km/h 94% 1.5 mm 199 W/m2
10:24 10.2 °C 9.3 °C 1011.9 hPa NNW 4.7 km/h 11.3 km/h 94% 1.3 mm 186 W/m2
10:29 10.3 °C 9.4 °C 1011.9 hPa Calm   8 km/h 94% 1.0 mm 174 W/m2
10:34 10.3 °C 9.4 °C 1011.9 hPa NW 3.2 km/h 6.4 km/h 94% 1.3 mm 167 W/m2
10:39 10.4 °C 9.5 °C 1011.9 hPa NW 7.9 km/h 9.7 km/h 94% 1.0 mm 202 W/m2
10:44 10.5 °C 9.6 °C 1011.9 hPa SSW 3.2 km/h 11.3 km/h 94% 0.8 mm 186 W/m2
10:49 10.5 °C 9.6 °C 1011.9 hPa SSE 1.4 km/h 11.3 km/h 94% 0.8 mm 197 W/m2
10:54 10.6 °C 9.7 °C 1011.9 hPa NW 3.2 km/h 12.9 km/h 94% 0.5 mm 229 W/m2
10:59 10.7 °C 9.8 °C 1011.9 hPa ESE 13 km/h 16.1 km/h 94% 0.5 mm 207 W/m2
11:04 10.8 °C 9.7 °C 1011.9 hPa West 3.2 km/h 11.3 km/h 93% 0.5 mm 315 W/m2
11:09 10.8 °C 9.7 °C 1011.5 hPa NE 4.7 km/h 14.5 km/h 93% 0.2 mm 250 W/m2
11:14 10.9 °C 9.8 °C 1011.5 hPa WSW 4.7 km/h 12.9 km/h 93% 0.2 mm 239 W/m2
11:19 11.1 °C 10 °C 1011.5 hPa ENE 3.2 km/h 4.8 km/h 93% 0.2 mm 274 W/m2
11:24 11.1 °C 10 °C 1011.9 hPa WNW 13 km/h 16.1 km/h 93% 0.2 mm 258 W/m2
11:29 11.2 °C 10.1 °C 1011.5 hPa NNW 1.4 km/h 4.8 km/h 93% 0.2 mm 241 W/m2
11:34 11.3 °C 10.2 °C 1011.5 hPa West 6.4 km/h 16.1 km/h 93% 0.0 mm 179 W/m2
11:39 11.3 °C 10 °C 1011.5 hPa NW 6.4 km/h 11.3 km/h 92% 0.0 mm 163 W/m2
11:44 11.3 °C 10 °C 1011.5 hPa NNW 3.2 km/h 16.1 km/h 92% 0.0 mm 195 W/m2
11:49 11.3 °C 10 °C 1011.5 hPa NW 7.9 km/h 22.5 km/h 92% 0.0 mm 271 W/m2
11:54 11.4 °C 10.1 °C 1011.5 hPa NW 1.4 km/h 14.5 km/h 92% 0.0 mm 381 W/m2
11:59 11.7 °C 10.4 °C 1011.2 hPa WSW 3.2 km/h 22.5 km/h 92% 0.0 mm 443 W/m2
12:04 12 °C 10.7 °C 1011.2 hPa WNW 3.2 km/h 11.3 km/h 92% 0.0 mm 374 W/m2
12:09 12.2 °C 10.8 °C 1011.5 hPa SSW 4.7 km/h 17.7 km/h 91% 0.0 mm 216 W/m2
12:14 12.4 °C 11.1 °C 1011.2 hPa WSW 1.4 km/h 9.7 km/h 92% 0.0 mm 738 W/m2
12:19 12.6 °C 11.2 °C 1011.2 hPa West 6.4 km/h 14.5 km/h 91% 0.0 mm 795 W/m2
12:24 12.9 °C 11.3 °C 1011.2 hPa WNW 6.4 km/h 16.1 km/h 90% 0.0 mm 795 W/m2
12:29 13.1 °C 11.5 °C 1011.2 hPa WNW 3.2 km/h 8 km/h 90% 0.0 mm 795 W/m2
12:34 13.3 °C 11.5 °C 1011.2 hPa WNW 11.1 km/h 12.9 km/h 89% 0.0 mm 497 W/m2
12:39 13.2 °C 11.1 °C 1011.2 hPa WNW 4.7 km/h 11.3 km/h 87% 0.0 mm 471 W/m2
12:44 13.2 °C 11.1 °C 1011.2 hPa WSW 7.9 km/h 17.7 km/h 87% 0.0 mm 726 W/m2
12:49 13.1 °C 10.8 °C 1011.5 hPa North 3.2 km/h 20.9 km/h 86% 0.0 mm 290 W/m2
12:54 12.8 °C 10.7 °C 1011.5 hPa WNW 13 km/h 19.3 km/h 87% 0.0 mm 302 W/m2
12:59 12.6 °C 10.8 °C 1011.9 hPa WSW 13 km/h 17.7 km/h 89% 0.2 mm 188 W/m2
13:04 12.4 °C 10.6 °C 1011.5 hPa NNW 3.2 km/h 14.5 km/h 89% 0.5 mm 262 W/m2
13:09 12.3 °C 10.7 °C 1011.9 hPa North 6.4 km/h 17.7 km/h 90% 0.5 mm 410 W/m2
13:14 12.3 °C 10.9 °C 1011.9 hPa Calm   6.4 km/h 91% 0.8 mm 130 W/m2
13:19 12.1 °C 10.7 °C 1011.9 hPa West 1.4 km/h 12.9 km/h 91% 1.0 mm 258 W/m2
13:24 12.1 °C 10.7 °C 1011.9 hPa West 17.7 km/h 17.7 km/h 91% 1.3 mm 364 W/m2
13:29 12.1 °C 10.8 °C 1011.9 hPa West 9.7 km/h 12.9 km/h 92% 1.3 mm 464 W/m2
13:34 12.2 °C 10.9 °C 1011.9 hPa WNW 11.1 km/h 24.1 km/h 92% 1.3 mm 229 W/m2
13:39 12.3 °C 11 °C 1011.9 hPa SW 6.4 km/h 19.3 km/h 92% 1.5 mm 171 W/m2
13:44 12.1 °C 10.5 °C 1012.2 hPa West 20.9 km/h 37 km/h 90% 1.5 mm 162 W/m2
13:49 11.9 °C 10.5 °C 1012.2 hPa WNW 11.1 km/h 14.5 km/h 91% 1.5 mm 425 W/m2
13:54 11.9 °C 10.5 °C 1012.2 hPa West 14.3 km/h 35.4 km/h 91% 1.5 mm 461 W/m2
13:59 12.1 °C 10.7 °C 1012.2 hPa West 11.1 km/h 16.1 km/h 91% 1.5 mm 448 W/m2
14:04 12.1 °C 10.8 °C 1012.2 hPa WNW 9.7 km/h 17.7 km/h 92% 1.5 mm 294 W/m2
14:09 12 °C 10.6 °C 1012.5 hPa NW 7.9 km/h 22.5 km/h 91% 1.3 mm 223 W/m2
14:14 12 °C 10.6 °C 1012.5 hPa West 3.2 km/h 14.5 km/h 91% 1.0 mm 666 W/m2
14:19 12.3 °C 11 °C 1012.5 hPa West 20.9 km/h 20.9 km/h 92% 0.8 mm 608 W/m2
14:24 12.6 °C 11.2 °C 1012.5 hPa WNW 9.7 km/h 19.3 km/h 91% 0.5 mm 469 W/m2
14:29 12.6 °C 10.8 °C 1012.9 hPa West 16.3 km/h 27.4 km/h 89% 0.5 mm 441 W/m2
14:34 12.8 °C 10.9 °C 1012.9 hPa WNW 11.1 km/h 17.7 km/h 88% 0.5 mm 538 W/m2
14:39 13 °C 11.1 °C 1012.9 hPa West 13 km/h 27.4 km/h 88% 0.2 mm 176 W/m2
14:44 12.9 °C 10.8 °C 1012.9 hPa West 13 km/h 27.4 km/h 87% 0.2 mm 399 W/m2
14:49 12.9 °C 10.6 °C 1012.9 hPa WNW 14.3 km/h 20.9 km/h 86% 0.2 mm 325 W/m2
14:54 12.9 °C 10.6 °C 1013.2 hPa WSW 16.3 km/h 22.5 km/h 86% 0.2 mm 554 W/m2
14:59 12.9 °C 10.4 °C 1013.2 hPa WSW 16.3 km/h 27.4 km/h 85% 0.2 mm 338 W/m2
15:04 12.9 °C 10.3 °C 1013.2 hPa WNW 4.7 km/h 22.5 km/h 84% 0.0 mm 371 W/m2
15:09 12.9 °C 10.3 °C 1013.2 hPa WNW 6.4 km/h 20.9 km/h 84% 0.0 mm 536 W/m2
15:14 13 °C 10.4 °C 1013.2 hPa WNW 7.9 km/h 17.7 km/h 84% 0.0 mm 469 W/m2
15:19 13 °C 10 °C 1013.2 hPa West 17.7 km/h 27.4 km/h 82% 0.0 mm 550 W/m2
15:24 13.1 °C 10.1 °C 1013.2 hPa WNW 3.2 km/h 11.3 km/h 82% 0.0 mm 468 W/m2
15:29 13.3 °C 10.1 °C 1013.5 hPa West 13 km/h 27.4 km/h 81% 0.0 mm 598 W/m2
15:34 13.4 °C 10 °C 1013.5 hPa West 11.1 km/h 17.7 km/h 80% 0.0 mm 510 W/m2
15:39 13.4 °C 9.8 °C 1013.5 hPa WNW 11.1 km/h 17.7 km/h 79% 0.0 mm 450 W/m2
15:44 13.4 °C 9.6 °C 1013.5 hPa WSW 4.7 km/h 19.3 km/h 78% 0.0 mm 408 W/m2
15:49 13.4 °C 9.8 °C 1013.5 hPa West 6.4 km/h 12.9 km/h 79% 0.0 mm 374 W/m2
15:54 13.5 °C 9.9 °C 1013.5 hPa NW 7.9 km/h 16.1 km/h 79% 0.0 mm 394 W/m2
15:59 13.6 °C 9.4 °C 1013.5 hPa West 13 km/h 22.5 km/h 76% 0.0 mm 404 W/m2
16:04 13.6 °C 9.6 °C 1013.5 hPa WNW 14.3 km/h 19.3 km/h 77% 0.0 mm 399 W/m2
16:09 13.4 °C 9.1 °C 1013.2 hPa WNW 9.7 km/h 17.7 km/h 75% 0.0 mm 374 W/m2
16:14 13.5 °C 9.2 °C 1013.5 hPa WNW 14.3 km/h 14.5 km/h 75% 0.0 mm 364 W/m2
16:19 13.5 °C 9.2 °C 1013.5 hPa SW 7.9 km/h 19.3 km/h 75% 0.0 mm 338 W/m2
16:24 13.5 °C 9.2 °C 1013.2 hPa WNW 13 km/h 16.1 km/h 75% 0.0 mm 341 W/m2
16:29 13.6 °C 9.3 °C 1013.2 hPa WSW 7.9 km/h 19.3 km/h 75% 0.0 mm 403 W/m2
16:34 13.7 °C 9.3 °C 1013.5 hPa NNW 6.4 km/h 16.1 km/h 75% 0.0 mm 350 W/m2
16:39 13.8 °C 9 °C 1013.5 hPa West 9.7 km/h 19.3 km/h 73% 0.0 mm 295 W/m2
16:44 13.8 °C 9 °C 1013.5 hPa West 20.9 km/h 20.9 km/h 73% 0.0 mm 279 W/m2
16:49 13.7 °C 8.7 °C 1013.5 hPa West 6.4 km/h 19.3 km/h 72% 0.0 mm 178 W/m2
16:54 13.2 °C 8.5 °C 1013.9 hPa WSW 7.9 km/h 30.6 km/h 73% 0.0 mm 232 W/m2
16:59 12.6 °C 8.1 °C 1013.9 hPa WNW 11.1 km/h 19.3 km/h 74% 0.0 mm 290 W/m2
17:04 12.4 °C 8.3 °C 1013.9 hPa WNW 7.9 km/h 30.6 km/h 76% 0.0 mm 327 W/m2
17:09 12.3 °C 7.6 °C 1013.9 hPa West 4.7 km/h 14.5 km/h 73% 0.0 mm 297 W/m2
17:14 12.4 °C 7.9 °C 1013.9 hPa WSW 1.4 km/h 19.3 km/h 74% 0.0 mm 262 W/m2
17:19 12.4 °C 7.9 °C 1013.9 hPa West 6.4 km/h 11.3 km/h 74% 0.0 mm 250 W/m2
17:24 12.4 °C 7.9 °C 1013.9 hPa West 13 km/h 14.5 km/h 74% 0.0 mm 258 W/m2
17:29 12.4 °C 7.9 °C 1014.2 hPa WNW 13 km/h 16.1 km/h 74% 0.0 mm 255 W/m2
17:34 12.5 °C 8.2 °C 1013.9 hPa West 9.7 km/h 14.5 km/h 75% 0.0 mm 262 W/m2
17:39 12.6 °C 8.3 °C 1013.9 hPa WSW 4.7 km/h 19.3 km/h 75% 0.0 mm 258 W/m2
17:44 12.7 °C 8.4 °C 1013.9 hPa West 6.4 km/h 12.9 km/h 75% 0.0 mm 299 W/m2
17:49 12.7 °C 8.2 °C 1014.2 hPa WNW 14.3 km/h 19.3 km/h 74% 0.0 mm 287 W/m2
17:55 12.8 °C 8.5 °C 1013.9 hPa WSW 14.3 km/h 14.5 km/h 75% 0.0 mm 287 W/m2
18:00 12.8 °C 8.3 °C 1014.2 hPa NW 7.9 km/h 14.5 km/h 74% 0.0 mm 292 W/m2
18:05 12.9 °C 8.2 °C 1013.9 hPa WSW 7.9 km/h 11.3 km/h 73% 0.0 mm 278 W/m2
18:10 12.9 °C 8.2 °C 1014.2 hPa NW 6.4 km/h 14.5 km/h 73% 0.0 mm 230 W/m2
18:15 12.8 °C 8.3 °C 1014.2 hPa WSW 6.4 km/h 19.3 km/h 74% 0.0 mm 137 W/m2
18:20 12.8 °C 8.3 °C 1014.2 hPa WNW 11.1 km/h 17.7 km/h 74% 0.0 mm 197 W/m2
18:25 12.7 °C 8.2 °C 1014.2 hPa WSW 14.3 km/h 17.7 km/h 74% 0.0 mm 156 W/m2
18:30 12.7 °C 8.4 °C 1014.2 hPa West 9.7 km/h 11.3 km/h 75% 0.0 mm 174 W/m2
18:35 12.7 °C 8.4 °C 1014.2 hPa WNW 3.2 km/h 16.1 km/h 75% 0.0 mm 202 W/m2
18:40 12.8 °C 8.1 °C 1014.2 hPa WNW 11.1 km/h 16.1 km/h 73% 0.0 mm 221 W/m2
18:45 12.7 °C 7.8 °C 1014.2 hPa NW 13 km/h 19.3 km/h 72% 0.0 mm 204 W/m2
18:50 12.6 °C 7.7 °C 1014.2 hPa West 9.7 km/h 19.3 km/h 72% 0.0 mm 149 W/m2
18:55 12.5 °C 7.6 °C 1014.2 hPa WNW 7.9 km/h 19.3 km/h 72% 0.0 mm 162 W/m2
19:00 12.5 °C 7.6 °C 1014.2 hPa WSW 7.9 km/h 14.5 km/h 72% 0.0 mm 185 W/m2
19:05 12.6 °C 7.9 °C 1014.2 hPa West 13 km/h 14.5 km/h 73% 0.0 mm 179 W/m2
19:10 12.6 °C 7.9 °C 1014.2 hPa West 20.9 km/h 20.9 km/h 73% 0.0 mm 225 W/m2
19:15 12.7 °C 8.2 °C 1014.2 hPa West 3.2 km/h 6.4 km/h 74% 0.0 mm 206 W/m2
19:20 12.8 °C 8.1 °C 1013.9 hPa WSW 16.3 km/h 16.1 km/h 73% 0.0 mm 325 W/m2
19:25 12.9 °C 8.2 °C 1013.9 hPa WSW 4.7 km/h 9.7 km/h 73% 0.0 mm 188 W/m2
19:30 12.9 °C 8.2 °C 1014.2 hPa West 9.7 km/h 12.9 km/h 73% 0.0 mm 251 W/m2
19:35 12.8 °C 8.1 °C 1014.2 hPa WSW 6.4 km/h 16.1 km/h 73% 0.0 mm 211 W/m2
19:40 12.7 °C 8.2 °C 1014.2 hPa West 6.4 km/h 14.5 km/h 74% 0.0 mm 127 W/m2
19:45 12.7 °C 8.2 °C 1014.2 hPa West 11.1 km/h 16.1 km/h 74% 0.0 mm 181 W/m2
19:50 12.7 °C 8.2 °C 1014.2 hPa WSW 7.9 km/h 17.7 km/h 74% 0.0 mm 118 W/m2
19:55 12.6 °C 8.1 °C 1014.6 hPa WNW 4.7 km/h 12.9 km/h 74% 0.0 mm 98 W/m2
20:00 12.4 °C 7.9 °C 1014.2 hPa West 6.4 km/h 17.7 km/h 74% 0.0 mm 98 W/m2
20:05 12.4 °C 7.9 °C 1014.6 hPa WNW 7.9 km/h 11.3 km/h 74% 0.0 mm 90 W/m2
20:10 12.4 °C 8.1 °C 1014.6 hPa WNW 4.7 km/h 8 km/h 75% 0.0 mm 84 W/m2
20:15 12.3 °C 8 °C 1014.6 hPa West 3.2 km/h 12.9 km/h 75% 0.0 mm 76 W/m2
20:20 12.2 °C 7.9 °C 1014.6 hPa WSW 4.7 km/h 9.7 km/h 75% 0.0 mm 91 W/m2
20:25 12.3 °C 8.2 °C 1014.6 hPa WNW 3.2 km/h 6.4 km/h 76% 0.0 mm 102 W/m2
20:30 12.4 °C 8.3 °C 1014.6 hPa WSW 6.4 km/h 14.5 km/h 76% 0.0 mm 98 W/m2
20:35 12.4 °C 8.3 °C 1014.6 hPa WSW 4.7 km/h 6.4 km/h 76% 0.0 mm 97 W/m2
20:40 12.5 °C 8.6 °C 1014.6 hPa WNW 3.2 km/h 14.5 km/h 77% 0.0 mm 79 W/m2
20:45 12.6 °C 8.7 °C 1014.9 hPa WNW 3.2 km/h 4.8 km/h 77% 0.0 mm 70 W/m2
20:50 12.6 °C 8.7 °C 1014.9 hPa WSW 1.4 km/h 9.7 km/h 77% 0.0 mm 58 W/m2
20:55 12.6 °C 8.7 °C 1014.9 hPa South 3.2 km/h 3.2 km/h 77% 0.0 mm 46 W/m2
21:00 12.4 °C 8.5 °C 1014.9 hPa WNW 1.4 km/h 3.2 km/h 77% 0.0 mm 35 W/m2
21:05 12.3 °C 8.4 °C 1015.2 hPa SSW 1.4 km/h 4.8 km/h 77% 0.0 mm 26 W/m2
21:10 12.1 °C 8.6 °C 1015.2 hPa SW 3.2 km/h 4.8 km/h 79% 0.0 mm 19 W/m2
21:15 11.8 °C 8.1 °C 1015.2 hPa Calm   3.2 km/h 78% 0.0 mm 14 W/m2
21:20 11.6 °C 8.3 °C 1015.2 hPa Calm   1.6 km/h 80% 0.0 mm 11 W/m2
21:25 11.3 °C 8.2 °C 1015.2 hPa Calm   3.2 km/h 81% 0.0 mm 7 W/m2
21:30 11.1 °C 8.1 °C 1015.2 hPa South 1.4 km/h 6.4 km/h 82% 0.0 mm 5 W/m2
21:35 10.8 °C 8 °C 1015.2 hPa ENE 1.4 km/h 3.2 km/h 83% 0.0 mm 0 W/m2
21:40 10.7 °C 8.1 °C 1015.2 hPa Calm   6.4 km/h 84% 0.0 mm 0 W/m2
21:45 10.5 °C 8.1 °C 1015.2 hPa Calm   6.4 km/h 85% 0.0 mm 0 W/m2
21:50 10.4 °C 8.2 °C 1015.6 hPa Calm   4.8 km/h 86% 0.0 mm 0 W/m2
21:55 10.3 °C 8.1 °C 1015.6 hPa ESE 1.4 km/h 6.4 km/h 86% 0.0 mm 0 W/m2
22:00 10.2 °C 8.1 °C 1015.6 hPa SE 1.4 km/h 1.6 km/h 87% 0.0 mm 0 W/m2
22:05 10.1 °C 8 °C 1015.6 hPa WSW 4.7 km/h 4.8 km/h 87% 0.0 mm 0 W/m2
22:10 10 °C 8.1 °C 1015.6 hPa WNW 3.2 km/h 6.4 km/h 88% 0.0 mm 0 W/m2
22:15 9.9 °C 8 °C 1015.6 hPa WSW 1.4 km/h 4.8 km/h 88% 0.0 mm 0 W/m2
22:20 9.8 °C 8.1 °C 1015.9 hPa West 1.4 km/h 6.4 km/h 89% 0.0 mm 0 W/m2
22:25 9.8 °C 8.1 °C 1015.6 hPa SE 3.2 km/h 11.3 km/h 89% 0.0 mm 0 W/m2
22:30 9.8 °C 8.1 °C 1015.9 hPa WNW 1.4 km/h 3.2 km/h 89% 0.0 mm 0 W/m2
22:35 9.7 °C 8 °C 1015.9 hPa West 3.2 km/h 11.3 km/h 89% 0.0 mm 0 W/m2
22:40 9.7 °C 8 °C 1015.9 hPa WSW 3.2 km/h 9.7 km/h 89% 0.0 mm 0 W/m2
22:45 9.7 °C 8.1 °C 1016.3 hPa West 1.4 km/h 11.3 km/h 90% 0.0 mm 0 W/m2
22:50 9.7 °C 8.1 °C 1016.3 hPa West 1.4 km/h 8 km/h 90% 0.0 mm 0 W/m2
22:55 9.6 °C 8 °C 1016.3 hPa WNW 9.7 km/h 11.3 km/h 90% 0.0 mm 0 W/m2
23:00 9.6 °C 8 °C 1016.3 hPa NW 4.7 km/h 9.7 km/h 90% 0.0 mm 0 W/m2
23:05 9.6 °C 8 °C 1016.3 hPa West 3.2 km/h 11.3 km/h 90% 0.0 mm 0 W/m2
23:10 9.6 °C 8 °C 1016.3 hPa WSW 4.7 km/h 9.7 km/h 90% 0.0 mm 0 W/m2
23:16 9.6 °C 8 °C 1016.3 hPa West 6.4 km/h 12.9 km/h 90% 0.0 mm 0 W/m2
23:21 9.6 °C 8 °C 1016.3 hPa SW 4.7 km/h 14.5 km/h 90% 0.0 mm 0 W/m2
23:26 9.4 °C 7.8 °C 1016.3 hPa WSW 4.7 km/h 12.9 km/h 90% 0.0 mm 0 W/m2
23:31 9.4 °C 8 °C 1016.3 hPa WNW 3.2 km/h 11.3 km/h 91% 0.0 mm 0 W/m2
23:36 9.3 °C 7.9 °C 1016.3 hPa West 3.2 km/h 11.3 km/h 91% 0.0 mm 0 W/m2
23:41 9.3 °C 7.9 °C 1016.3 hPa WNW 9.7 km/h 12.9 km/h 91% 0.0 mm 0 W/m2
23:46 9.2 °C 7.8 °C 1016.3 hPa WSW 1.4 km/h 8 km/h 91% 0.0 mm 0 W/m2
23:51 9.2 °C 7.8 °C 1016.3 hPa WSW 6.4 km/h 8 km/h 91% 0.0 mm 0 W/m2
23:56 9.1 °C 7.9 °C 1016.3 hPa SW 3.2 km/h 16.1 km/h 92% 0.0 mm 0 W/m2
Juneau County Weather
Compliments of Weather Underground - 4 mb